createdAt,value
2023-05-08T00:00:59.508Z,14.95
2023-05-08T00:01:59.409Z,14.94
2023-05-08T00:02:59.450Z,14.94
2023-05-08T00:03:59.623Z,14.94
2023-05-08T00:04:59.520Z,14.96
2023-05-08T00:05:59.334Z,14.98
2023-05-08T00:06:59.320Z,14.99
2023-05-08T00:07:59.291Z,14.98
2023-05-08T00:08:59.267Z,14.98
2023-05-08T00:09:59.288Z,14.98
2023-05-08T00:10:59.252Z,14.98
2023-05-08T00:11:59.254Z,14.98
2023-05-08T00:12:59.310Z,14.98
2023-05-08T00:13:59.287Z,14.99
2023-05-08T00:14:59.193Z,14.99
2023-05-08T00:15:59.216Z,14.98
2023-05-08T00:16:59.226Z,14.96
2023-05-08T00:17:59.239Z,14.95
2023-05-08T00:18:59.207Z,14.96
2023-05-08T00:19:59.160Z,14.95
2023-05-08T00:20:59.129Z,14.95
2023-05-08T00:21:59.115Z,14.98
2023-05-08T00:22:59.101Z,14.96
2023-05-08T00:23:59.107Z,14.96
2023-05-08T00:24:59.134Z,14.98
2023-05-08T00:25:59.083Z,14.95
2023-05-08T00:26:59.068Z,14.95
2023-05-08T00:27:59.069Z,14.94
2023-05-08T00:28:59.058Z,14.95
2023-05-08T00:29:59.046Z,14.96
2023-05-08T00:30:59.019Z,14.95
2023-05-08T00:31:59.070Z,14.98
2023-05-08T00:32:59.075Z,14.96
2023-05-08T00:33:58.997Z,14.98
2023-05-08T00:34:58.965Z,14.98
2023-05-08T00:35:58.947Z,14.98
2023-05-08T00:36:58.946Z,14.98
2023-05-08T00:37:59.005Z,14.99
2023-05-08T00:38:58.923Z,14.99
2023-05-08T00:39:58.895Z,15.01
2023-05-08T00:40:58.883Z,15.01
2023-05-08T00:41:58.943Z,15.01
2023-05-08T00:42:58.869Z,15.01
2023-05-08T00:43:58.850Z,15.01
2023-05-08T00:44:58.857Z,14.99
2023-05-08T00:46:01.725Z,14.99
2023-05-08T00:46:58.841Z,14.98
2023-05-08T00:47:58.850Z,14.96
2023-05-08T00:48:58.807Z,14.96
2023-05-08T00:49:58.785Z,14.99
2023-05-08T00:50:58.768Z,14.99
2023-05-08T00:51:58.789Z,14.99
2023-05-08T00:52:58.761Z,14.99
2023-05-08T00:53:58.730Z,14.99
2023-05-08T00:54:58.735Z,14.99
2023-05-08T00:55:58.765Z,14.98
2023-05-08T00:56:58.716Z,14.99
2023-05-08T00:57:58.682Z,14.99
2023-05-08T00:58:58.692Z,15.02
2023-05-08T00:59:58.775Z,15.02
2023-05-08T01:00:58.692Z,15.02
2023-05-08T01:01:58.711Z,15.01
2023-05-08T01:02:58.721Z,14.99
2023-05-08T01:03:58.667Z,14.98
2023-05-08T01:04:58.635Z,14.96
2023-05-08T01:05:58.657Z,14.98
2023-05-08T01:06:58.616Z,14.98
2023-05-08T01:07:58.602Z,14.96
2023-05-08T01:08:58.570Z,14.98
2023-05-08T01:09:58.572Z,14.98
2023-05-08T01:10:58.588Z,15.01
2023-05-08T01:11:58.535Z,15.03
2023-05-08T01:12:58.560Z,15.02
2023-05-08T01:13:58.505Z,15.01
2023-05-08T01:14:58.505Z,15.01
2023-05-08T01:15:58.516Z,14.98
2023-05-08T01:16:58.519Z,14.99
2023-05-08T01:17:58.550Z,15.01
2023-05-08T01:18:58.452Z,15.02
2023-05-08T01:19:58.466Z,15.02
2023-05-08T01:20:58.419Z,15.03
2023-05-08T01:21:58.427Z,15.03
2023-05-08T01:22:58.705Z,15.01
2023-05-08T01:23:58.421Z,15.02
2023-05-08T01:24:58.406Z,15.03
2023-05-08T01:25:58.375Z,15.02
2023-05-08T01:26:58.374Z,15.03
2023-05-08T01:27:58.356Z,15.06
2023-05-08T01:28:58.349Z,15.06
2023-05-08T01:29:58.330Z,15.06
2023-05-08T01:30:58.305Z,15.07
2023-05-08T01:31:58.341Z,15.07
2023-05-08T01:32:58.464Z,15.06
2023-05-08T01:33:58.329Z,15.09
2023-05-08T01:34:58.274Z,15.07
2023-05-08T01:35:58.242Z,15.07
2023-05-08T01:36:58.290Z,15.06
2023-05-08T01:37:58.218Z,15.03
2023-05-08T01:38:58.219Z,15.01
2023-05-08T01:39:58.212Z,15.01
2023-05-08T01:40:58.208Z,15.02
2023-05-08T01:41:58.196Z,15.02
2023-05-08T01:42:58.200Z,15.03
2023-05-08T01:43:58.159Z,15.02
2023-05-08T01:44:58.137Z,15.01
2023-05-08T01:45:58.152Z,15.02
2023-05-08T01:46:58.162Z,15.01
2023-05-08T01:47:58.147Z,15.01
2023-05-08T01:48:58.127Z,14.99
2023-05-08T01:49:58.117Z,14.99
2023-05-08T01:50:58.088Z,15.01
2023-05-08T01:51:58.082Z,14.99
2023-05-08T01:52:58.066Z,14.98
2023-05-08T01:53:58.067Z,14.99
2023-05-08T01:56:29.621Z,14.95
2023-05-08T01:57:29.620Z,14.94
2023-05-08T01:58:29.616Z,14.94
2023-05-08T01:59:29.652Z,14.92
2023-05-08T02:00:29.639Z,14.91
2023-05-08T02:01:29.610Z,14.91
2023-05-08T02:02:29.685Z,14.91
2023-05-08T02:03:29.656Z,14.91
2023-05-08T02:04:30.810Z,14.91
2023-05-08T02:05:29.552Z,14.88
2023-05-08T02:06:29.562Z,14.86
2023-05-08T02:07:29.512Z,14.84
2023-05-08T02:08:29.492Z,14.81
2023-05-08T02:09:29.505Z,14.83
2023-05-08T02:10:29.481Z,14.84
2023-05-08T02:11:29.476Z,14.84
2023-05-08T02:12:29.474Z,14.84
2023-05-08T02:13:29.460Z,14.81
2023-05-08T02:14:29.416Z,14.80
2023-05-08T02:15:29.483Z,14.80
2023-05-08T02:16:29.436Z,14.78
2023-05-08T02:17:29.427Z,14.75
2023-05-08T02:18:29.398Z,14.77
2023-05-08T02:19:29.360Z,14.77
2023-05-08T02:20:29.374Z,14.77
2023-05-08T02:21:29.346Z,14.78
2023-05-08T02:22:29.318Z,14.80
2023-05-08T02:23:29.352Z,14.78
2023-05-08T02:24:29.318Z,14.81
2023-05-08T02:25:29.347Z,14.83
2023-05-08T02:26:29.314Z,14.84
2023-05-08T02:27:29.316Z,14.84
2023-05-08T02:28:29.290Z,14.83
2023-05-08T02:29:29.262Z,14.83
2023-05-08T02:30:29.268Z,14.81
2023-05-08T02:31:29.281Z,14.81
2023-05-08T02:32:29.266Z,14.80
2023-05-08T02:33:29.214Z,14.80
2023-05-08T02:34:29.223Z,14.81
2023-05-08T02:35:29.204Z,14.80
2023-05-08T02:36:29.183Z,14.75
2023-05-08T02:37:29.176Z,14.73
2023-05-08T02:38:29.173Z,14.72
2023-05-08T02:39:29.154Z,14.72
2023-05-08T02:40:29.151Z,14.72
2023-05-08T02:41:29.117Z,14.73
2023-05-08T02:42:29.155Z,14.73
2023-05-08T02:43:29.092Z,14.72
2023-05-08T02:44:29.144Z,14.70
2023-05-08T02:45:29.044Z,14.72
2023-05-08T02:46:29.104Z,14.70
2023-05-08T02:47:29.054Z,14.70
2023-05-08T02:48:29.042Z,14.70
2023-05-08T02:49:29.047Z,14.72
2023-05-08T02:50:29.020Z,14.72
2023-05-08T02:51:28.979Z,14.72
2023-05-08T02:52:28.984Z,14.72
2023-05-08T02:53:29.000Z,14.70
2023-05-08T02:54:28.978Z,14.68
2023-05-08T02:55:28.926Z,14.65
2023-05-08T02:56:28.921Z,14.64
2023-05-08T02:57:28.936Z,14.62
2023-05-08T02:58:28.919Z,14.62
2023-05-08T02:59:28.906Z,14.61
2023-05-08T03:00:28.866Z,14.61
2023-05-08T03:01:28.977Z,14.61
2023-05-08T03:02:28.957Z,14.62
2023-05-08T03:03:28.955Z,14.65
2023-05-08T03:04:28.824Z,14.69
2023-05-08T03:05:28.835Z,14.69
2023-05-08T03:06:28.843Z,14.65
2023-05-08T03:07:28.814Z,14.68
2023-05-08T03:08:28.783Z,14.68
2023-05-08T03:09:28.763Z,14.68
2023-05-08T03:10:28.762Z,14.68
2023-05-08T03:11:28.778Z,14.68
2023-05-08T03:12:28.735Z,14.69
2023-05-08T03:13:28.779Z,14.68
2023-05-08T03:14:28.717Z,14.68
2023-05-08T03:15:28.704Z,14.65
2023-05-08T03:16:28.714Z,14.65
2023-05-08T03:17:28.690Z,14.64
2023-05-08T03:18:28.688Z,14.62
2023-05-08T03:19:28.687Z,14.61
2023-05-08T03:20:28.690Z,14.61
2023-05-08T03:21:28.645Z,14.58
2023-05-08T03:22:28.653Z,14.58
2023-05-08T03:23:28.631Z,14.55
2023-05-08T03:24:28.628Z,14.55
2023-05-08T03:25:28.605Z,14.55
2023-05-08T03:26:28.568Z,14.58
2023-05-08T03:27:28.607Z,14.58
2023-05-08T03:28:28.596Z,14.60
2023-05-08T03:29:28.534Z,14.61
2023-05-08T03:30:28.528Z,14.61
2023-05-08T03:31:28.600Z,14.62
2023-05-08T03:32:28.552Z,14.62
2023-05-08T03:33:28.489Z,14.64
2023-05-08T03:34:36.509Z,14.61
2023-05-08T03:35:28.461Z,14.62
2023-05-08T03:36:28.473Z,14.60
2023-05-08T03:37:28.504Z,14.58
2023-05-08T03:38:28.454Z,14.60
2023-05-08T03:39:28.430Z,14.60
2023-05-08T03:40:28.409Z,14.60
2023-05-08T03:41:28.708Z,14.62
2023-05-08T03:42:28.402Z,14.61
2023-05-08T03:43:28.364Z,14.62
2023-05-08T03:44:28.381Z,14.60
2023-05-08T03:45:28.347Z,14.61
2023-05-08T03:46:28.344Z,14.60
2023-05-08T03:47:28.375Z,14.58
2023-05-08T03:48:28.314Z,14.55
2023-05-08T03:49:28.295Z,14.54
2023-05-08T03:50:28.327Z,14.52
2023-05-08T03:51:28.302Z,14.52
2023-05-08T03:52:28.286Z,14.52
2023-05-08T03:53:28.270Z,14.51
2023-05-08T03:54:28.246Z,14.52
2023-05-08T03:55:28.250Z,14.51
2023-05-08T03:56:28.242Z,14.52
2023-05-08T03:57:29.906Z,14.51
2023-05-08T03:58:28.225Z,14.52
2023-05-08T03:59:28.196Z,14.51
2023-05-08T04:00:28.197Z,14.52
2023-05-08T04:01:28.209Z,14.54
2023-05-08T04:02:28.281Z,14.54
2023-05-08T04:03:28.262Z,14.54
2023-05-08T04:04:28.132Z,14.52
2023-05-08T04:05:28.146Z,14.54
2023-05-08T04:06:30.742Z,14.57
2023-05-08T04:07:28.106Z,14.58
2023-05-08T04:08:28.094Z,14.60
2023-05-08T04:09:28.067Z,14.62
2023-05-08T04:10:28.095Z,14.64
2023-05-08T04:11:28.080Z,14.64
2023-05-08T04:12:28.059Z,14.65
2023-05-08T04:13:28.096Z,14.65
2023-05-08T04:14:28.974Z,14.65
2023-05-08T04:15:28.010Z,14.68
2023-05-08T04:16:28.060Z,14.65
2023-05-08T04:17:28.033Z,14.65
2023-05-08T04:18:27.968Z,14.68
2023-05-08T04:19:27.960Z,14.65
2023-05-08T04:20:27.967Z,14.65
2023-05-08T04:21:27.940Z,14.65
2023-05-08T04:22:27.947Z,14.68
2023-05-08T04:23:27.921Z,14.69
2023-05-08T04:24:27.911Z,14.70
2023-05-08T04:25:27.877Z,14.69
2023-05-08T04:26:29.684Z,14.70
2023-05-08T04:27:27.903Z,14.70
2023-05-08T04:28:27.873Z,14.70
2023-05-08T04:29:27.828Z,14.69
2023-05-08T04:30:27.893Z,14.65
2023-05-08T04:31:27.937Z,14.64
2023-05-08T04:32:27.842Z,14.68
2023-05-08T04:33:27.870Z,14.68
2023-05-08T04:34:27.823Z,14.70
2023-05-08T04:35:27.792Z,14.72
2023-05-08T04:36:27.779Z,14.69
2023-05-08T04:37:27.753Z,14.69
2023-05-08T04:38:27.749Z,14.69
2023-05-08T04:39:27.731Z,14.68
2023-05-08T04:40:27.742Z,14.68
2023-05-08T04:41:27.718Z,14.65
2023-05-08T04:42:27.708Z,14.62
2023-05-08T04:43:27.693Z,14.62
2023-05-08T04:44:27.648Z,14.62
2023-05-08T04:45:27.693Z,14.61
2023-05-08T04:46:27.679Z,14.60
2023-05-08T04:47:27.723Z,14.60
2023-05-08T04:48:27.617Z,14.58
2023-05-08T04:49:27.620Z,14.60
2023-05-08T04:50:27.583Z,14.62
2023-05-08T04:51:27.632Z,14.61
2023-05-08T04:52:27.649Z,14.62
2023-05-08T04:53:27.575Z,14.62
2023-05-08T04:54:27.585Z,14.65
2023-05-08T04:55:27.578Z,14.69
2023-05-08T04:56:27.536Z,14.69
2023-05-08T04:57:27.543Z,14.65
2023-05-08T04:58:27.547Z,14.61
2023-05-08T04:59:27.512Z,14.60
2023-05-08T05:00:27.504Z,14.57
2023-05-08T05:01:27.545Z,14.52
2023-05-08T05:02:30.397Z,14.50
2023-05-08T05:03:27.496Z,14.45
2023-05-08T05:04:27.450Z,14.42
2023-05-08T05:05:27.432Z,14.37
2023-05-08T05:06:27.406Z,14.36
2023-05-08T05:07:27.394Z,14.36
2023-05-08T05:08:27.440Z,14.35
2023-05-08T05:09:27.377Z,14.29
2023-05-08T05:10:27.357Z,14.27
2023-05-08T05:11:27.390Z,14.27
2023-05-08T05:12:27.353Z,14.28
2023-05-08T05:13:27.347Z,14.32
2023-05-08T05:14:27.311Z,14.33
2023-05-08T05:15:27.352Z,14.33
2023-05-08T05:16:27.452Z,14.29
2023-05-08T05:17:27.293Z,14.24
2023-05-08T05:18:27.269Z,14.18
2023-05-08T05:19:27.534Z,14.14
2023-05-08T05:20:29.236Z,14.12
2023-05-08T05:21:27.261Z,14.06
2023-05-08T05:22:27.215Z,14.04
2023-05-08T05:23:27.210Z,14.03
2023-05-08T05:24:27.234Z,14.04
2023-05-08T05:25:27.177Z,14.09
2023-05-08T05:26:27.176Z,14.07
2023-05-08T05:27:27.180Z,14.03
2023-05-08T05:28:27.211Z,14.03
2023-05-08T05:29:27.135Z,14.04
2023-05-08T05:30:27.267Z,14.03
2023-05-08T05:31:27.172Z,14.02
2023-05-08T05:32:27.185Z,14.03
2023-05-08T05:33:27.078Z,14.02
2023-05-08T05:34:27.082Z,14.02
2023-05-08T05:35:27.066Z,14.02
2023-05-08T05:36:27.067Z,14.04
2023-05-08T05:37:27.030Z,14.09
2023-05-08T05:38:27.050Z,14.12
2023-05-08T05:39:27.079Z,14.14
2023-05-08T05:40:28.011Z,14.17
2023-05-08T05:41:26.997Z,14.12
2023-05-08T05:42:26.987Z,14.10
2023-05-08T05:43:27.008Z,14.12
2023-05-08T05:44:27.252Z,14.15
2023-05-08T05:45:26.953Z,14.17
2023-05-08T05:46:26.989Z,14.20
2023-05-08T05:47:26.978Z,14.21
2023-05-08T05:48:26.927Z,14.21
2023-05-08T05:49:26.889Z,14.22
2023-05-08T05:50:26.919Z,14.25
2023-05-08T05:51:28.725Z,14.27
2023-05-08T05:52:26.870Z,14.29
2023-05-08T05:53:26.876Z,14.33
2023-05-08T05:54:26.833Z,14.37
2023-05-08T05:55:26.856Z,14.42
2023-05-08T05:56:26.826Z,14.43
2023-05-08T05:57:26.812Z,14.45
2023-05-08T05:58:26.815Z,14.51
2023-05-08T05:59:26.815Z,14.57
2023-05-08T06:00:26.820Z,14.58
2023-05-08T06:01:27.799Z,14.64
2023-05-08T06:02:26.905Z,14.69
2023-05-08T06:03:27.014Z,14.70
2023-05-08T06:04:26.859Z,14.73
2023-05-08T06:05:26.789Z,14.75
2023-05-08T06:06:26.694Z,14.80
2023-05-08T06:07:26.733Z,14.81
2023-05-08T06:08:26.680Z,14.80
2023-05-08T06:09:26.677Z,14.81
2023-05-08T06:10:29.455Z,14.84
2023-05-08T06:11:27.503Z,14.88
2023-05-08T06:12:26.669Z,14.89
2023-05-08T06:13:26.723Z,14.91
2023-05-08T06:14:26.646Z,14.96
2023-05-08T06:15:26.597Z,14.96
2023-05-08T06:16:26.648Z,14.98
2023-05-08T06:17:26.588Z,14.98
2023-05-08T06:18:26.569Z,15.03
2023-05-08T06:19:26.586Z,15.07
2023-05-08T06:20:26.761Z,15.09
2023-05-08T06:21:28.425Z,15.09
2023-05-08T06:22:26.517Z,15.11
2023-05-08T06:23:26.534Z,15.10
2023-05-08T06:24:26.500Z,14.99
2023-05-08T06:25:26.505Z,14.96
2023-05-08T06:26:26.481Z,14.98
2023-05-08T06:27:26.455Z,14.98
2023-05-08T06:28:26.473Z,14.98
2023-05-08T06:29:26.544Z,15.02
2023-05-08T06:30:26.462Z,15.07
2023-05-08T06:31:28.138Z,15.14
2023-05-08T06:32:26.703Z,15.11
2023-05-08T06:33:27.103Z,15.11
2023-05-08T06:34:26.368Z,15.11
2023-05-08T06:35:26.378Z,15.11
2023-05-08T06:36:26.368Z,15.11
2023-05-08T06:37:26.343Z,15.02
2023-05-08T06:38:26.376Z,14.98
2023-05-08T06:39:26.329Z,15.02
2023-05-08T06:40:31.301Z,15.03
2023-05-08T06:41:26.320Z,15.03
2023-05-08T06:42:26.321Z,14.99
2023-05-08T06:43:26.281Z,15.02
2023-05-08T06:44:26.275Z,15.09
2023-05-08T06:45:26.266Z,15.13
2023-05-08T06:46:26.293Z,15.16
2023-05-08T06:47:26.269Z,15.14
2023-05-08T06:48:26.233Z,15.16
2023-05-08T06:49:26.203Z,15.16
2023-05-08T06:50:26.216Z,15.10
2023-05-08T06:51:26.884Z,15.06
2023-05-08T06:52:26.185Z,15.02
2023-05-08T06:53:26.171Z,15.06
2023-05-08T06:54:26.223Z,15.10
2023-05-08T06:55:26.150Z,15.10
2023-05-08T06:56:26.135Z,15.03
2023-05-08T06:57:26.114Z,14.99
2023-05-08T06:58:26.149Z,15.01
2023-05-08T06:59:26.088Z,15.03
2023-05-08T07:00:26.152Z,15.06
2023-05-08T07:01:27.876Z,15.03
2023-05-08T07:02:26.091Z,15.09
2023-05-08T07:03:27.248Z,15.09
2023-05-08T07:04:26.066Z,15.09
2023-05-08T07:05:26.072Z,15.09
2023-05-08T07:06:26.020Z,15.10
2023-05-08T07:07:28.776Z,15.11
2023-05-08T07:08:26.048Z,15.11
2023-05-08T07:09:25.982Z,15.14
2023-05-08T07:10:25.972Z,15.14
2023-05-08T07:11:26.042Z,15.17
2023-05-08T07:12:25.993Z,15.17
2023-05-08T07:13:26.007Z,15.21
2023-05-08T07:14:25.987Z,15.21
2023-05-08T07:15:26.919Z,15.17
2023-05-08T07:16:25.934Z,15.13
2023-05-08T07:17:25.921Z,15.13
2023-05-08T07:18:25.904Z,15.10
2023-05-08T07:19:25.919Z,15.07
2023-05-08T07:20:25.912Z,15.09
2023-05-08T07:21:25.841Z,15.11
2023-05-08T07:22:25.904Z,15.13
2023-05-08T07:23:25.817Z,15.16
2023-05-08T07:24:25.812Z,15.13
2023-05-08T07:25:25.796Z,15.14
2023-05-08T07:26:25.829Z,15.19
2023-05-08T07:27:25.779Z,15.23
2023-05-08T07:28:25.792Z,15.31
2023-05-08T07:29:25.774Z,15.35
2023-05-08T07:30:25.741Z,15.38
2023-05-08T07:31:25.740Z,15.41
2023-05-08T07:32:25.798Z,15.46
2023-05-08T07:33:25.718Z,15.50
2023-05-08T07:34:25.712Z,15.53
2023-05-08T07:35:25.689Z,15.56
2023-05-08T07:36:25.692Z,15.59
2023-05-08T07:37:25.662Z,15.60
2023-05-08T07:38:28.464Z,15.62
2023-05-08T07:39:25.706Z,15.65
2023-05-08T07:40:25.624Z,15.69
2023-05-08T07:41:25.802Z,15.69
2023-05-08T07:42:25.622Z,15.74
2023-05-08T07:43:25.603Z,15.76
2023-05-08T07:44:25.612Z,15.78
2023-05-08T07:45:25.582Z,15.74
2023-05-08T07:46:25.600Z,15.76
2023-05-08T07:47:25.580Z,15.80
2023-05-08T07:48:25.535Z,15.86
2023-05-08T07:49:25.566Z,15.90
2023-05-08T07:50:29.398Z,15.90
2023-05-08T07:51:26.251Z,15.90
2023-05-08T07:52:29.217Z,15.94
2023-05-08T07:53:27.165Z,15.97
2023-05-08T07:54:28.471Z,16.00
2023-05-08T07:55:25.472Z,16.02
2023-05-08T07:56:25.481Z,16.02
2023-05-08T07:57:25.461Z,16.05
2023-05-08T07:58:25.457Z,16.02
2023-05-08T07:59:25.513Z,16.05
2023-05-08T08:00:25.418Z,16.05
2023-05-08T08:01:25.402Z,16.05
2023-05-08T08:02:25.441Z,16.02
2023-05-08T08:03:25.421Z,16.01
2023-05-08T08:04:25.431Z,16.02
2023-05-08T08:05:25.377Z,16.02
2023-05-08T08:06:25.615Z,16.01
2023-05-08T08:07:25.341Z,16.00
2023-05-08T08:08:25.312Z,16.01
2023-05-08T08:09:25.416Z,16.02
2023-05-08T08:10:25.293Z,16.04
2023-05-08T08:11:25.289Z,16.08
2023-05-08T08:12:25.269Z,16.04
2023-05-08T08:13:25.307Z,16.11
2023-05-08T08:14:26.996Z,16.17
2023-05-08T08:15:25.249Z,16.23
2023-05-08T08:16:26.034Z,16.31
2023-05-08T08:17:26.906Z,16.35
2023-05-08T08:18:25.210Z,16.39
2023-05-08T08:19:25.213Z,16.38
2023-05-08T08:20:25.171Z,16.41
2023-05-08T08:21:25.180Z,16.42
2023-05-08T08:22:25.301Z,16.42
2023-05-08T08:23:25.232Z,16.46
2023-05-08T08:24:25.143Z,16.41
2023-05-08T08:25:25.133Z,16.25
2023-05-08T08:26:25.113Z,16.25
2023-05-08T08:27:25.125Z,16.25
2023-05-08T08:28:25.137Z,16.25
2023-05-08T08:29:25.100Z,16.33
2023-05-08T08:30:25.090Z,16.43
2023-05-08T08:31:25.146Z,16.49
2023-05-08T08:32:25.084Z,16.58
2023-05-08T08:33:25.052Z,16.63
2023-05-08T08:34:25.031Z,16.64
2023-05-08T08:35:25.062Z,16.68
2023-05-08T08:36:25.006Z,16.73
2023-05-08T08:37:24.996Z,16.78
2023-05-08T08:38:24.978Z,16.78
2023-05-08T08:39:24.972Z,16.78
2023-05-08T08:40:24.959Z,16.83
2023-05-08T08:41:24.932Z,16.88
2023-05-08T08:42:24.984Z,16.96
2023-05-08T08:43:24.911Z,16.94
2023-05-08T08:44:24.919Z,16.94
2023-05-08T08:45:24.897Z,16.96
2023-05-08T08:46:24.938Z,16.98
2023-05-08T08:47:24.910Z,16.93
2023-05-08T08:48:25.817Z,16.83
2023-05-08T08:49:24.876Z,16.82
2023-05-08T08:50:24.847Z,16.86
2023-05-08T08:51:25.775Z,16.86
2023-05-08T08:52:24.826Z,16.82
2023-05-08T08:53:24.804Z,16.81
2023-05-08T08:54:24.780Z,16.79
2023-05-08T08:55:24.829Z,16.82
2023-05-08T08:56:24.761Z,16.73
2023-05-08T08:57:24.764Z,16.67
2023-05-08T08:58:24.743Z,16.63
2023-05-08T08:59:24.737Z,16.60
2023-05-08T09:00:24.748Z,16.57
2023-05-08T09:01:24.877Z,16.61
2023-05-08T09:02:24.779Z,16.52
2023-05-08T09:03:24.742Z,16.39
2023-05-08T09:04:24.864Z,16.33
2023-05-08T09:05:24.677Z,16.34
2023-05-08T09:06:24.671Z,16.38
2023-05-08T09:07:24.668Z,16.42
2023-05-08T09:08:24.627Z,16.45
2023-05-08T09:09:24.624Z,16.48
2023-05-08T09:10:24.615Z,16.50
2023-05-08T09:11:24.644Z,16.53
2023-05-08T09:12:24.591Z,16.58
2023-05-08T09:13:24.634Z,16.60
2023-05-08T09:14:24.554Z,16.58
2023-05-08T09:15:24.572Z,16.53
2023-05-08T09:16:24.578Z,16.52
2023-05-08T09:17:24.611Z,16.52
2023-05-08T09:18:24.507Z,16.60
2023-05-08T09:19:26.340Z,16.68
2023-05-08T09:20:24.493Z,16.71
2023-05-08T09:21:24.486Z,16.76
2023-05-08T09:22:24.472Z,16.82
2023-05-08T09:23:24.470Z,16.88
2023-05-08T09:24:24.510Z,16.86
2023-05-08T09:25:24.517Z,16.86
2023-05-08T09:26:24.403Z,16.91
2023-05-08T09:27:24.414Z,16.88
2023-05-08T09:28:24.430Z,16.91
2023-05-08T09:29:24.576Z,16.97
2023-05-08T09:30:24.374Z,16.97
2023-05-08T09:31:24.426Z,17.00
2023-05-08T09:32:24.384Z,17.01
2023-05-08T09:33:24.360Z,16.98
2023-05-08T09:34:24.350Z,16.96
2023-05-08T09:35:24.306Z,16.97
2023-05-08T09:36:24.314Z,17.03
2023-05-08T09:37:24.281Z,17.03
2023-05-08T09:38:24.292Z,17.01
2023-05-08T09:39:24.277Z,17.01
2023-05-08T09:40:24.256Z,17.03
2023-05-08T09:41:24.236Z,17.04
2023-05-08T09:42:24.222Z,17.01
2023-05-08T09:43:24.218Z,17.01
2023-05-08T09:44:24.229Z,17.00
2023-05-08T09:45:24.188Z,17.00
2023-05-08T09:46:24.322Z,16.98
2023-05-08T09:47:24.335Z,16.94
2023-05-08T09:48:24.225Z,16.91
2023-05-08T09:49:24.141Z,16.86
2023-05-08T09:50:24.119Z,16.85
2023-05-08T09:51:24.129Z,16.79
2023-05-08T09:52:24.140Z,16.75
2023-05-08T09:53:24.099Z,16.71
2023-05-08T09:54:24.078Z,16.66
2023-05-08T09:55:24.063Z,16.63
2023-05-08T09:56:24.074Z,16.61
2023-05-08T09:57:24.068Z,16.56
2023-05-08T09:58:24.054Z,16.49
2023-05-08T09:59:24.016Z,16.46
2023-05-08T10:00:24.042Z,16.45
2023-05-08T10:01:24.129Z,16.42
2023-05-08T10:02:24.017Z,16.39
2023-05-08T10:03:24.274Z,16.38
2023-05-08T10:04:23.970Z,16.34
2023-05-08T10:05:24.030Z,16.33
2023-05-08T10:06:23.948Z,16.33
2023-05-08T10:07:23.953Z,16.33
2023-05-08T10:08:23.930Z,16.30
2023-05-08T10:09:23.979Z,16.33
2023-05-08T10:10:23.905Z,16.38
2023-05-08T10:11:23.929Z,16.41
2023-05-08T10:12:23.937Z,16.43
2023-05-08T10:13:23.916Z,16.43
2023-05-08T10:14:23.863Z,16.43
2023-05-08T10:15:23.844Z,16.46
2023-05-08T10:16:23.892Z,16.46
2023-05-08T10:17:23.872Z,16.48
2023-05-08T10:18:23.808Z,16.52
2023-05-08T10:19:23.828Z,16.56
2023-05-08T10:20:23.841Z,16.52
2023-05-08T10:21:23.807Z,16.52
2023-05-08T10:22:23.802Z,16.53
2023-05-08T10:23:23.763Z,16.56
2023-05-08T10:24:23.764Z,16.56
2023-05-08T10:25:23.757Z,16.56
2023-05-08T10:26:23.740Z,16.49
2023-05-08T10:27:23.712Z,16.46
2023-05-08T10:28:23.704Z,16.46
2023-05-08T10:29:23.704Z,16.41
2023-05-08T10:30:23.710Z,16.43
2023-05-08T10:31:23.696Z,16.43
2023-05-08T10:32:23.703Z,16.34
2023-05-08T10:33:23.645Z,16.39
2023-05-08T10:34:23.644Z,16.45
2023-05-08T10:35:24.781Z,16.52
2023-05-08T10:36:23.628Z,16.53
2023-05-08T10:37:23.618Z,16.60
2023-05-08T10:38:23.691Z,16.66
2023-05-08T10:39:23.594Z,16.66
2023-05-08T10:40:23.596Z,16.68
2023-05-08T10:41:23.596Z,16.70
2023-05-08T10:42:23.539Z,16.70
2023-05-08T10:43:23.569Z,16.75
2023-05-08T10:44:23.529Z,16.78
2023-05-08T10:45:23.509Z,16.82
2023-05-08T10:46:23.502Z,16.88
2023-05-08T10:47:23.591Z,16.91
2023-05-08T10:48:23.497Z,16.97
2023-05-08T10:49:23.479Z,17.04
2023-05-08T10:50:23.455Z,17.12
2023-05-08T10:51:23.478Z,17.15
2023-05-08T10:52:23.439Z,17.23
2023-05-08T10:53:23.443Z,17.26
2023-05-08T10:54:23.401Z,17.33
2023-05-08T10:55:23.419Z,17.31
2023-05-08T10:56:25.142Z,17.28
2023-05-08T10:57:23.379Z,17.21
2023-05-08T10:58:23.371Z,17.22
2023-05-08T10:59:23.341Z,17.21
2023-05-08T11:00:23.332Z,17.21
2023-05-08T11:01:23.344Z,17.15
2023-05-08T11:02:23.346Z,17.16
2023-05-08T11:03:31.386Z,17.15
2023-05-08T11:04:24.376Z,17.18
2023-05-08T11:05:23.307Z,17.25
2023-05-08T11:06:23.256Z,17.31
2023-05-08T11:07:23.256Z,17.36
2023-05-08T11:08:23.238Z,17.41
2023-05-08T11:09:23.263Z,17.41
2023-05-08T11:10:23.925Z,17.38
2023-05-08T11:11:23.203Z,17.34
2023-05-08T11:12:24.295Z,17.26
2023-05-08T11:13:23.340Z,17.19
2023-05-08T11:14:23.160Z,17.18
2023-05-08T11:15:24.745Z,17.16
2023-05-08T11:16:23.198Z,17.18
2023-05-08T11:17:23.274Z,17.16
2023-05-08T11:18:26.318Z,17.16
2023-05-08T11:19:23.122Z,17.15
2023-05-08T11:20:23.241Z,17.07
2023-05-08T11:21:23.958Z,17.04
2023-05-08T11:22:23.133Z,17.03
2023-05-08T11:23:23.148Z,16.98
2023-05-08T11:24:24.015Z,16.96
2023-05-08T11:25:25.116Z,16.94
2023-05-08T11:26:23.057Z,17.00
2023-05-08T11:27:23.011Z,17.04
2023-05-08T11:28:23.018Z,17.08
2023-05-08T11:29:22.996Z,17.14
2023-05-08T11:30:23.024Z,17.11
2023-05-08T11:31:23.071Z,17.12
2023-05-08T11:32:22.970Z,17.16
2023-05-08T11:33:22.997Z,17.22
2023-05-08T11:34:22.946Z,17.26
2023-05-08T11:35:22.939Z,17.28
2023-05-08T11:36:22.954Z,17.31
2023-05-08T11:37:22.904Z,17.36
2023-05-08T11:38:22.938Z,17.43
2023-05-08T11:39:22.878Z,17.54
2023-05-08T11:40:22.912Z,17.54
2023-05-08T11:41:22.841Z,17.62
2023-05-08T11:42:22.844Z,17.71
2023-05-08T11:43:22.829Z,17.79
2023-05-08T11:44:22.834Z,17.87
2023-05-08T11:45:22.819Z,17.92
2023-05-08T11:46:22.875Z,17.95
2023-05-08T11:47:22.988Z,18.02
2023-05-08T11:48:22.766Z,18.05
2023-05-08T11:49:26.866Z,18.10
2023-05-08T11:50:23.795Z,18.11
2023-05-08T11:51:22.763Z,18.14
2023-05-08T11:52:22.710Z,18.23
2023-05-08T11:53:22.710Z,18.35
2023-05-08T11:54:22.699Z,18.50
2023-05-08T11:55:23.486Z,18.60
2023-05-08T11:56:22.658Z,18.73
2023-05-08T11:57:22.690Z,18.76
2023-05-08T11:58:22.680Z,18.85
2023-05-08T11:59:27.573Z,18.94
2023-05-08T12:00:23.472Z,19.02
2023-05-08T12:01:22.616Z,19.06
2023-05-08T12:02:22.761Z,19.19
2023-05-08T12:03:23.225Z,19.28
2023-05-08T12:04:22.776Z,19.37
2023-05-08T12:05:22.697Z,19.36
2023-05-08T12:06:22.555Z,19.41
2023-05-08T12:07:22.625Z,19.46
2023-05-08T12:08:22.621Z,19.41
2023-05-08T12:09:22.538Z,19.32
2023-05-08T12:10:22.513Z,19.39
2023-05-08T12:11:22.516Z,19.46
2023-05-08T12:12:24.429Z,19.51
2023-05-08T12:13:22.537Z,19.62
2023-05-08T12:14:22.500Z,19.77
2023-05-08T12:15:22.469Z,19.86
2023-05-08T12:16:22.493Z,19.84
2023-05-08T12:17:22.746Z,19.86
2023-05-08T12:18:22.747Z,19.81
2023-05-08T12:19:22.484Z,19.92
2023-05-08T12:20:22.443Z,20.05
2023-05-08T12:21:22.387Z,19.99
2023-05-08T12:22:22.401Z,19.92
2023-05-08T12:23:22.386Z,19.84
2023-05-08T12:24:22.640Z,19.80
2023-05-08T12:25:22.336Z,19.84
2023-05-08T12:26:22.360Z,19.76
2023-05-08T12:27:22.322Z,19.73
2023-05-08T12:28:22.304Z,19.78
2023-05-08T12:29:22.661Z,19.83
2023-05-08T12:30:22.851Z,19.91
2023-05-08T12:31:22.333Z,19.92
2023-05-08T12:32:22.831Z,19.94
2023-05-08T12:33:22.248Z,20.02
2023-05-08T12:34:22.235Z,20.16
2023-05-08T12:35:22.276Z,20.29
2023-05-08T12:36:22.250Z,20.29
2023-05-08T12:37:22.214Z,20.32
2023-05-08T12:38:22.197Z,20.26
2023-05-08T12:39:22.197Z,20.14
2023-05-08T12:40:22.473Z,20.21
2023-05-08T12:41:22.179Z,20.23
2023-05-08T12:42:22.147Z,20.17
2023-05-08T12:43:22.129Z,20.20
2023-05-08T12:44:22.137Z,20.29
2023-05-08T12:45:22.381Z,20.36
2023-05-08T12:46:22.123Z,20.43
2023-05-08T12:47:22.171Z,20.41
2023-05-08T12:48:22.080Z,20.31
2023-05-08T12:49:22.063Z,20.33
2023-05-08T12:50:22.197Z,20.20
2023-05-08T12:51:22.990Z,19.94
2023-05-08T12:52:22.038Z,19.87
2023-05-08T12:53:22.040Z,19.96
2023-05-08T12:54:22.019Z,19.81